createdAt,value
2017-07-04T00:02:17.851Z,23.00
2017-07-04T00:04:46.124Z,22.90
2017-07-04T00:07:14.408Z,22.90
2017-07-04T00:09:42.728Z,22.90
2017-07-04T00:12:11.747Z,22.80
2017-07-04T00:14:40.047Z,22.80
2017-07-04T00:17:08.304Z,22.80
2017-07-04T00:19:36.603Z,22.80
2017-07-04T00:22:04.836Z,22.80
2017-07-04T00:24:33.104Z,22.80
2017-07-04T00:27:02.148Z,22.70
2017-07-04T00:29:30.401Z,22.70
2017-07-04T00:31:58.669Z,22.70
2017-07-04T00:34:27.775Z,22.50
2017-07-04T00:36:56.065Z,22.50
2017-07-04T00:39:24.394Z,22.40
2017-07-04T00:41:52.645Z,22.30
2017-07-04T00:44:20.947Z,22.30
2017-07-04T00:46:50.006Z,22.40
2017-07-04T00:49:18.275Z,22.40
2017-07-04T00:51:46.560Z,22.50
2017-07-04T00:54:15.032Z,22.60
2017-07-04T00:56:43.305Z,22.60
2017-07-04T00:59:11.559Z,22.50
2017-07-04T01:01:39.885Z,22.60
2017-07-04T01:04:08.125Z,22.40
2017-07-04T01:06:36.460Z,22.40
2017-07-04T01:09:04.727Z,22.40
2017-07-04T01:11:32.983Z,22.40
2017-07-04T01:14:01.271Z,22.30
2017-07-04T01:16:29.567Z,22.30
2017-07-04T01:18:59.695Z,22.30
2017-07-04T01:21:28.107Z,22.20
2017-07-04T01:23:56.543Z,22.20
2017-07-04T01:26:24.804Z,22.30
2017-07-04T01:28:53.089Z,22.20
2017-07-04T01:31:21.405Z,22.20
2017-07-04T01:33:49.751Z,22.10
2017-07-04T01:36:18.005Z,21.90
2017-07-04T01:38:46.296Z,21.80
2017-07-04T01:41:14.558Z,21.70
2017-07-04T01:43:42.800Z,21.80
2017-07-04T01:46:11.070Z,21.90
2017-07-04T01:48:39.373Z,22.00
2017-07-04T01:51:07.655Z,22.10
2017-07-04T01:53:35.941Z,22.10
2017-07-04T01:56:04.202Z,22.10
2017-07-04T01:58:32.462Z,22.00
2017-07-04T02:01:00.878Z,22.00
2017-07-04T02:03:29.116Z,21.90
2017-07-04T02:05:57.393Z,21.90
2017-07-04T02:08:25.676Z,21.80
2017-07-04T02:10:53.940Z,21.90
2017-07-04T02:13:22.207Z,22.00
2017-07-04T02:15:50.672Z,22.10
2017-07-04T02:18:18.908Z,22.10
2017-07-04T02:20:47.176Z,22.10
2017-07-04T02:23:15.453Z,22.00
2017-07-04T02:25:43.763Z,22.00
2017-07-04T02:28:12.779Z,22.00
2017-07-04T02:30:41.074Z,22.00
2017-07-04T02:33:09.323Z,22.00
2017-07-04T02:35:37.580Z,22.00
2017-07-04T02:38:06.411Z,22.10
2017-07-04T02:40:34.657Z,22.20
2017-07-04T02:43:03.699Z,22.10
2017-07-04T02:45:31.973Z,22.10
2017-07-04T02:48:01.053Z,22.10
2017-07-04T02:50:29.296Z,22.10
2017-07-04T02:52:58.340Z,22.10
2017-07-04T02:55:26.624Z,22.10
2017-07-04T02:57:54.887Z,22.10
2017-07-04T03:00:23.172Z,22.10
2017-07-04T03:02:52.269Z,22.20
2017-07-04T03:05:20.530Z,22.10
2017-07-04T03:07:48.839Z,22.20
2017-07-04T03:10:17.239Z,22.20
2017-07-04T03:12:45.642Z,22.20
2017-07-04T03:15:14.640Z,22.10
2017-07-04T03:17:42.892Z,22.10
2017-07-04T03:20:11.956Z,22.10
2017-07-04T03:22:40.221Z,22.10
2017-07-04T03:25:08.671Z,22.10
2017-07-04T03:27:36.951Z,22.10
2017-07-04T03:30:05.223Z,22.00
2017-07-04T03:32:33.484Z,22.00
2017-07-04T03:35:02.671Z,22.00
2017-07-04T03:37:31.705Z,22.00
2017-07-04T03:39:59.950Z,22.00
2017-07-04T03:42:28.984Z,22.00
2017-07-04T03:44:57.257Z,22.00
2017-07-04T03:47:25.522Z,21.90
2017-07-04T03:49:53.786Z,21.80
2017-07-04T03:52:22.040Z,21.90
2017-07-04T03:54:51.064Z,21.90
2017-07-04T03:57:19.312Z,21.90
2017-07-04T03:59:48.352Z,21.90
2017-07-04T04:02:16.629Z,21.90
2017-07-04T04:04:44.903Z,21.90
2017-07-04T04:07:13.168Z,21.80
2017-07-04T04:09:41.479Z,21.80
2017-07-04T04:12:09.759Z,21.80
2017-07-04T04:14:38.139Z,21.80
2017-07-04T04:17:06.388Z,21.80
2017-07-04T04:19:34.640Z,21.80
2017-07-04T04:22:02.907Z,21.80
2017-07-04T04:24:31.212Z,21.90
2017-07-04T04:26:59.483Z,21.90
2017-07-04T04:29:27.742Z,21.80
2017-07-04T04:31:56.764Z,21.40
2017-07-04T04:34:25.039Z,21.70
2017-07-04T04:36:53.303Z,21.60
2017-07-04T04:39:21.554Z,21.60
2017-07-04T04:41:50.583Z,21.60
2017-07-04T04:44:18.875Z,21.60
2017-07-04T04:46:47.140Z,21.60
2017-07-04T04:49:15.455Z,21.70
2017-07-04T04:51:43.867Z,21.70
2017-07-04T04:54:12.219Z,21.70
2017-07-04T04:56:41.422Z,21.60
2017-07-04T04:59:11.719Z,21.60
2017-07-04T05:01:40.998Z,21.60
2017-07-04T05:04:09.274Z,21.60
2017-07-04T05:06:37.703Z,21.60
2017-07-04T05:09:05.927Z,21.60
2017-07-04T05:11:34.206Z,21.50
2017-07-04T05:14:02.464Z,21.60
2017-07-04T05:16:30.726Z,21.60
2017-07-04T05:18:59.135Z,21.60
2017-07-04T05:21:27.484Z,21.60
2017-07-04T05:23:55.762Z,21.60
2017-07-04T05:26:24.341Z,21.50
2017-07-04T05:28:52.640Z,21.50
2017-07-04T05:31:20.952Z,21.50
2017-07-04T05:33:50.133Z,21.40
2017-07-04T05:36:18.396Z,21.40
2017-07-04T05:38:46.687Z,21.40
2017-07-04T05:41:14.963Z,21.40
2017-07-04T05:43:43.256Z,21.40
2017-07-04T05:46:11.585Z,21.50
2017-07-04T05:48:39.867Z,21.40
2017-07-04T05:51:08.134Z,21.50
2017-07-04T05:53:37.155Z,21.60
2017-07-04T05:56:05.431Z,21.60
2017-07-04T05:58:33.711Z,21.60
2017-07-04T06:01:02.088Z,21.70
2017-07-04T06:03:30.367Z,21.70
2017-07-04T06:05:58.686Z,21.70
2017-07-04T06:08:27.180Z,21.60
2017-07-04T06:10:56.206Z,21.90
2017-07-04T06:13:24.515Z,21.90
2017-07-04T06:15:52.799Z,21.70
2017-07-04T06:18:21.085Z,21.70
2017-07-04T06:20:49.348Z,21.70
2017-07-04T06:23:17.625Z,21.70
2017-07-04T06:25:46.057Z,21.70
2017-07-04T06:28:15.100Z,21.70
2017-07-04T06:30:44.360Z,21.60
2017-07-04T06:33:12.624Z,21.40
2017-07-04T06:35:40.943Z,21.50
2017-07-04T06:38:13.599Z,21.50
2017-07-04T06:40:41.904Z,21.50
2017-07-04T06:43:10.172Z,21.50
2017-07-04T06:45:39.510Z,21.50
2017-07-04T06:48:07.782Z,21.40
2017-07-04T06:50:36.072Z,21.30
2017-07-04T06:53:05.139Z,21.60
2017-07-04T06:55:33.431Z,21.60
2017-07-04T06:58:02.508Z,21.70
2017-07-04T07:00:30.987Z,21.80
2017-07-04T07:03:00.046Z,21.80
2017-07-04T07:05:28.320Z,21.70
2017-07-04T07:07:57.446Z,21.80
2017-07-04T07:10:25.708Z,21.80
2017-07-04T07:12:53.973Z,21.80
2017-07-04T07:15:22.336Z,21.90
2017-07-04T07:17:50.609Z,21.90
2017-07-04T07:20:18.898Z,21.90
2017-07-04T07:22:47.190Z,21.90
2017-07-04T07:25:15.471Z,21.90
2017-07-04T07:27:43.889Z,21.80
2017-07-04T07:30:12.271Z,21.90
2017-07-04T07:32:41.142Z,22.00
2017-07-04T07:35:09.449Z,21.90
2017-07-04T07:37:38.529Z,22.00
2017-07-04T07:40:06.855Z,22.00
2017-07-04T07:42:35.171Z,22.10
2017-07-04T07:45:03.454Z,22.20
2017-07-04T07:47:31.817Z,22.30
2017-07-04T07:50:00.223Z,22.30
2017-07-04T07:52:28.505Z,22.20
2017-07-04T07:54:56.818Z,22.30
2017-07-04T07:57:25.219Z,22.40
2017-07-04T07:59:54.336Z,22.50
2017-07-04T08:02:22.640Z,22.50
2017-07-04T08:04:51.079Z,22.60
2017-07-04T08:07:19.403Z,22.60
2017-07-04T08:09:47.865Z,22.60
2017-07-04T08:12:16.143Z,22.50
2017-07-04T08:14:44.407Z,22.60
2017-07-04T08:17:12.737Z,22.60
2017-07-04T08:19:41.023Z,22.50
2017-07-04T08:22:09.326Z,22.40
2017-07-04T08:24:37.612Z,22.40
2017-07-04T08:27:05.910Z,22.40
2017-07-04T08:29:34.967Z,22.60
2017-07-04T08:32:03.240Z,22.60
2017-07-04T08:34:31.508Z,22.60
2017-07-04T08:36:59.798Z,22.60
2017-07-04T08:39:28.062Z,22.60
2017-07-04T08:41:57.317Z,22.60
2017-07-04T08:44:25.769Z,22.60
2017-07-04T08:46:54.696Z,22.60
2017-07-04T08:49:23.009Z,22.50
2017-07-04T08:51:51.269Z,22.50
2017-07-04T08:54:19.523Z,22.50
2017-07-04T08:56:47.894Z,22.60
2017-07-04T08:59:16.911Z,22.80
2017-07-04T09:01:45.206Z,22.80
2017-07-04T09:04:14.338Z,23.00
2017-07-04T09:06:42.612Z,23.00
2017-07-04T09:09:10.913Z,23.00
2017-07-04T09:11:39.925Z,23.00
2017-07-04T09:14:08.192Z,23.00
2017-07-04T09:16:36.507Z,23.10
2017-07-04T09:19:04.742Z,23.20
2017-07-04T09:21:33.007Z,23.20
2017-07-04T09:24:01.303Z,23.20
2017-07-04T09:26:29.617Z,23.30
2017-07-04T09:28:57.935Z,23.40
2017-07-04T09:31:26.187Z,23.50
2017-07-04T09:33:54.533Z,23.40
2017-07-04T09:36:22.820Z,23.30
2017-07-04T09:38:51.138Z,23.20
2017-07-04T09:41:19.433Z,23.40
2017-07-04T09:43:47.708Z,23.50
2017-07-04T09:46:16.030Z,23.50
2017-07-04T09:48:44.342Z,23.60
2017-07-04T09:51:12.628Z,23.70
2017-07-04T09:53:41.056Z,23.70
2017-07-04T09:56:09.376Z,23.70
2017-07-04T09:58:37.696Z,23.80
2017-07-04T10:01:06.012Z,23.90
2017-07-04T10:03:34.323Z,24.00
2017-07-04T10:06:02.696Z,24.00
2017-07-04T10:08:30.967Z,23.80
2017-07-04T10:10:59.357Z,23.80
2017-07-04T10:13:28.382Z,23.80
2017-07-04T10:15:56.671Z,23.80
2017-07-04T10:18:24.986Z,23.80
2017-07-04T10:20:54.194Z,23.80
2017-07-04T10:23:22.467Z,23.80
2017-07-04T10:25:50.732Z,23.90
2017-07-04T10:28:19.025Z,23.90
2017-07-04T10:30:47.278Z,23.90
2017-07-04T10:33:15.561Z,23.70
2017-07-04T10:35:43.933Z,23.80
2017-07-04T10:38:12.210Z,23.70
2017-07-04T10:40:40.533Z,23.70
2017-07-04T10:43:08.845Z,23.80
2017-07-04T10:45:37.133Z,23.90
2017-07-04T10:48:05.401Z,24.10
2017-07-04T10:50:33.675Z,24.20
2017-07-04T10:53:01.956Z,24.30
2017-07-04T10:55:30.251Z,24.40
2017-07-04T10:57:58.589Z,24.50
2017-07-04T11:00:26.877Z,24.60
2017-07-04T11:02:55.176Z,24.60
2017-07-04T11:05:23.501Z,24.60
2017-07-04T11:07:52.091Z,24.60
2017-07-04T11:10:20.542Z,24.60
2017-07-04T11:12:48.829Z,24.70
2017-07-04T11:15:17.179Z,24.70
2017-07-04T11:17:45.632Z,24.60
2017-07-04T11:20:13.903Z,24.50
2017-07-04T11:22:42.207Z,24.50
2017-07-04T11:25:10.544Z,24.70
2017-07-04T11:27:38.910Z,24.80
2017-07-04T11:30:07.345Z,24.80
2017-07-04T11:32:36.749Z,24.80
2017-07-04T11:35:05.410Z,24.80
2017-07-04T11:37:34.082Z,24.80
2017-07-04T11:40:02.842Z,25.00
2017-07-04T11:42:31.171Z,25.00
2017-07-04T11:44:59.466Z,25.10
2017-07-04T11:47:27.741Z,25.00
2017-07-04T11:49:56.005Z,25.20
2017-07-04T11:52:24.288Z,25.30
2017-07-04T11:54:52.597Z,25.30
2017-07-04T11:57:20.872Z,25.50
2017-07-04T11:59:49.149Z,25.50
2017-07-04T12:02:17.420Z,25.50
2017-07-04T12:04:45.774Z,25.10
2017-07-04T12:07:14.036Z,24.70
2017-07-04T12:09:42.347Z,24.50
2017-07-04T12:12:10.625Z,24.30
2017-07-04T12:14:39.885Z,24.20
2017-07-04T12:17:08.948Z,24.10
2017-07-04T12:19:37.212Z,24.10
2017-07-04T12:22:05.566Z,24.10
2017-07-04T12:24:33.909Z,24.00
2017-07-04T12:27:03.051Z,23.80
2017-07-04T12:29:31.357Z,23.70
2017-07-04T12:32:00.269Z,23.70
2017-07-04T12:34:29.328Z,23.70
2017-07-04T12:36:57.629Z,23.70
2017-07-04T12:39:26.100Z,23.80
2017-07-04T12:41:54.748Z,23.90
2017-07-04T12:44:23.105Z,23.90
2017-07-04T12:46:51.372Z,24.00
2017-07-04T12:49:19.650Z,24.00
2017-07-04T12:51:48.055Z,24.00
2017-07-04T12:54:16.364Z,24.00
2017-07-04T12:56:44.810Z,23.90
2017-07-04T12:59:13.110Z,23.90
2017-07-04T13:01:41.398Z,24.00
2017-07-04T13:04:09.664Z,23.90
2017-07-04T13:06:37.927Z,23.90
2017-07-04T13:09:06.209Z,23.80
2017-07-04T13:11:34.604Z,23.70
2017-07-04T13:14:03.785Z,23.70
2017-07-04T13:16:33.316Z,23.70
2017-07-04T13:19:01.632Z,23.60
2017-07-04T13:21:30.686Z,23.70
2017-07-04T13:23:59.001Z,23.70
2017-07-04T13:26:27.301Z,23.70
2017-07-04T13:28:55.647Z,23.70
2017-07-04T13:31:23.929Z,23.70
2017-07-04T13:33:52.213Z,23.60
2017-07-04T13:36:20.585Z,23.70
2017-07-04T13:38:48.889Z,23.70
2017-07-04T13:41:17.198Z,23.60
2017-07-04T13:43:45.507Z,23.60
2017-07-04T13:46:14.979Z,23.50
2017-07-04T13:48:43.303Z,23.60
2017-07-04T13:51:11.575Z,23.60
2017-07-04T13:53:40.619Z,23.70
2017-07-04T13:56:08.906Z,23.70
2017-07-04T13:58:37.190Z,23.70
2017-07-04T14:01:05.518Z,23.70
2017-07-04T14:03:34.386Z,23.70
2017-07-04T14:06:02.700Z,23.70
2017-07-04T14:08:31.000Z,23.70
2017-07-04T14:10:59.309Z,23.70
2017-07-04T14:16:24.988Z,23.60
2017-07-04T14:18:53.282Z,23.60
2017-07-04T14:21:21.555Z,23.60
2017-07-04T14:23:49.868Z,23.60
2017-07-04T14:26:18.171Z,23.70
2017-07-04T14:28:47.290Z,23.80
2017-07-04T14:34:15.855Z,23.70
2017-07-04T14:36:44.345Z,23.80
2017-07-04T14:39:12.622Z,23.90
2017-07-04T14:41:41.683Z,24.10
2017-07-04T14:44:09.976Z,24.10
2017-07-04T14:46:38.274Z,24.30
2017-07-04T14:49:06.767Z,24.60
2017-07-04T14:51:35.063Z,24.90
2017-07-04T14:54:03.337Z,24.90
2017-07-04T14:56:31.648Z,24.80
2017-07-04T14:58:59.955Z,24.80
2017-07-04T15:01:28.276Z,24.80
2017-07-04T15:03:57.055Z,25.10
2017-07-04T15:06:26.130Z,25.20
2017-07-04T15:08:54.468Z,25.20
2017-07-04T15:11:22.748Z,25.20
2017-07-04T15:13:51.164Z,25.20
2017-07-04T15:16:20.245Z,25.10
2017-07-04T15:18:48.559Z,25.10
2017-07-04T15:21:21.164Z,25.20
2017-07-04T15:23:49.434Z,25.10
2017-07-04T15:26:17.750Z,25.10
2017-07-04T15:28:46.093Z,25.10
2017-07-04T15:31:14.425Z,25.10
2017-07-04T15:33:42.710Z,25.00
2017-07-04T15:36:10.990Z,25.00
2017-07-04T15:38:39.319Z,24.90
2017-07-04T15:41:07.628Z,25.10
2017-07-04T15:43:36.717Z,25.40
2017-07-04T15:46:05.100Z,25.30
2017-07-04T15:48:33.415Z,25.40
2017-07-04T15:51:02.699Z,25.40
2017-07-04T15:53:31.056Z,25.40
2017-07-04T15:55:59.446Z,25.40
2017-07-04T15:58:27.763Z,25.50
2017-07-04T16:00:56.068Z,25.60
2017-07-04T16:03:24.475Z,25.70
2017-07-04T16:05:52.710Z,25.70
2017-07-04T16:08:20.993Z,25.60
2017-07-04T16:10:49.304Z,25.40
2017-07-04T16:13:17.584Z,25.30
2017-07-04T16:15:45.925Z,25.10
2017-07-04T16:18:14.275Z,25.20
2017-07-04T16:20:42.602Z,25.20
2017-07-04T16:23:10.896Z,25.20
2017-07-04T16:25:39.277Z,25.20
2017-07-04T16:28:07.535Z,25.20
2017-07-04T16:30:35.871Z,25.30
2017-07-04T16:33:04.228Z,25.40
2017-07-04T16:35:32.536Z,25.40
2017-07-04T16:38:00.872Z,25.30
2017-07-04T16:40:29.239Z,25.40
2017-07-04T16:42:57.545Z,25.30
2017-07-04T16:45:25.888Z,25.30
2017-07-04T16:47:54.282Z,25.30
2017-07-04T16:50:22.551Z,25.30
2017-07-04T16:52:50.891Z,25.50
2017-07-04T16:55:19.419Z,25.40
2017-07-04T16:57:47.700Z,25.30
2017-07-04T17:00:16.046Z,25.30
2017-07-04T17:02:46.345Z,25.60
2017-07-04T17:05:14.970Z,25.60
2017-07-04T17:07:43.293Z,25.70
2017-07-04T17:10:11.706Z,25.80
2017-07-04T17:12:40.006Z,25.90
2017-07-04T17:15:08.315Z,25.90
2017-07-04T17:17:36.664Z,25.90
2017-07-04T17:20:04.983Z,25.80
2017-07-04T17:22:33.340Z,25.80
2017-07-04T17:25:02.467Z,25.90
2017-07-04T17:27:30.900Z,25.90
2017-07-04T17:29:59.201Z,26.00
2017-07-04T17:32:27.499Z,26.00
2017-07-04T17:34:55.809Z,25.90
2017-07-04T17:37:24.145Z,26.00
2017-07-04T17:39:52.647Z,26.10
2017-07-04T17:42:20.988Z,26.10
2017-07-04T17:44:49.544Z,26.00
2017-07-04T17:47:18.381Z,25.90
2017-07-04T17:49:46.995Z,25.70
2017-07-04T17:52:15.540Z,25.70
2017-07-04T17:54:44.085Z,25.80
2017-07-04T17:57:12.657Z,25.80
2017-07-04T17:59:41.076Z,25.70
2017-07-04T18:02:09.973Z,25.70
2017-07-04T18:04:38.401Z,25.80
2017-07-04T18:07:06.753Z,25.80
2017-07-04T18:09:35.125Z,25.70
2017-07-04T18:12:03.490Z,25.70
2017-07-04T18:14:31.980Z,25.60
2017-07-04T18:17:00.274Z,25.60
2017-07-04T18:19:28.671Z,25.70
2017-07-04T18:21:57.034Z,25.70
2017-07-04T18:27:27.213Z,25.90
2017-07-04T18:29:55.835Z,25.80
2017-07-04T18:32:24.291Z,25.70
2017-07-04T18:34:52.596Z,25.70
2017-07-04T18:37:21.727Z,25.50
2017-07-04T18:39:50.027Z,25.40
2017-07-04T18:42:18.380Z,25.50
2017-07-04T18:44:46.842Z,25.50
2017-07-04T18:47:15.900Z,25.40
2017-07-04T18:49:44.295Z,25.40
2017-07-04T18:52:12.821Z,25.30
2017-07-04T18:54:41.208Z,25.40
2017-07-04T18:57:10.544Z,25.30
2017-07-04T18:59:39.027Z,25.30
2017-07-04T19:02:07.345Z,25.30
2017-07-04T19:04:35.856Z,25.20
2017-07-04T19:07:04.199Z,25.10
2017-07-04T19:09:33.287Z,25.00
2017-07-04T19:12:02.337Z,24.90
2017-07-04T19:14:30.704Z,25.00
2017-07-04T19:16:59.005Z,25.00
2017-07-04T19:19:27.704Z,24.90
2017-07-04T19:21:57.009Z,24.90
2017-07-04T19:24:26.160Z,24.90
2017-07-04T19:26:55.521Z,25.00
2017-07-04T19:29:24.310Z,25.00
2017-07-04T19:31:52.830Z,25.10
2017-07-04T19:34:21.571Z,25.10
2017-07-04T19:36:51.369Z,25.10
2017-07-04T19:39:20.684Z,25.20
2017-07-04T19:41:51.147Z,25.20
2017-07-04T19:44:21.044Z,25.10
2017-07-04T19:46:49.974Z,25.10
2017-07-04T19:49:21.336Z,25.00
2017-07-04T19:52:00.131Z,25.00
2017-07-04T19:54:29.893Z,25.00
2017-07-04T19:56:59.087Z,25.00
2017-07-04T19:59:28.390Z,25.00
2017-07-04T20:01:57.913Z,24.90
2017-07-04T20:04:28.821Z,24.80
2017-07-04T20:06:57.644Z,24.70
2017-07-04T20:09:26.452Z,24.70
2017-07-04T20:11:55.623Z,24.60
2017-07-04T20:14:26.059Z,24.60
2017-07-04T20:16:57.163Z,24.50
2017-07-04T20:19:27.894Z,24.40
2017-07-04T20:21:59.449Z,24.40
2017-07-04T20:24:32.828Z,24.30
2017-07-04T20:27:04.780Z,24.20
2017-07-04T20:29:35.927Z,24.10
2017-07-04T20:32:06.454Z,24.00
2017-07-04T20:34:37.634Z,24.00
2017-07-04T20:37:09.986Z,23.90
2017-07-04T20:39:40.908Z,23.90
2017-07-04T20:42:12.142Z,23.80
2017-07-04T20:44:43.905Z,23.60
2017-07-04T20:47:15.109Z,23.60
2017-07-04T20:49:46.663Z,23.60
2017-07-04T20:52:16.933Z,23.50
2017-07-04T20:54:48.945Z,23.40
2017-07-04T20:57:19.204Z,23.40
2017-07-04T20:59:50.569Z,23.40
2017-07-04T21:02:22.150Z,23.30
2017-07-04T21:04:55.006Z,23.20
2017-07-04T21:07:27.607Z,23.10
2017-07-04T21:09:58.688Z,23.10
2017-07-04T21:12:29.090Z,23.00
2017-07-04T21:14:59.906Z,23.00
2017-07-04T21:17:30.534Z,23.00
2017-07-04T21:19:59.642Z,23.10
2017-07-04T21:22:28.454Z,23.10
2017-07-04T21:24:56.905Z,23.10
2017-07-04T21:27:25.730Z,23.10
2017-07-04T21:29:55.026Z,23.00
2017-07-04T21:32:23.539Z,22.90
2017-07-04T21:34:51.862Z,23.00
2017-07-04T21:37:20.197Z,23.00
2017-07-04T21:39:49.263Z,22.90
2017-07-04T21:42:17.542Z,22.90
2017-07-04T21:44:46.016Z,22.80
2017-07-04T21:47:15.112Z,22.80
2017-07-04T21:49:44.403Z,22.70
2017-07-04T21:52:12.718Z,22.70
2017-07-04T21:54:41.016Z,22.70
2017-07-04T21:57:09.323Z,22.60
2017-07-04T21:59:37.822Z,22.50
2017-07-04T22:02:06.162Z,22.50
2017-07-04T22:04:34.483Z,22.60
2017-07-04T22:07:02.816Z,22.60
2017-07-04T22:09:31.210Z,22.50
2017-07-04T22:11:59.542Z,22.40
2017-07-04T22:14:27.846Z,22.40
2017-07-04T22:16:56.115Z,22.30
2017-07-04T22:19:24.423Z,22.30
2017-07-04T22:21:52.963Z,22.20
2017-07-04T22:24:21.292Z,22.20
2017-07-04T22:26:49.658Z,22.20
2017-07-04T22:29:17.981Z,22.20
2017-07-04T22:31:47.024Z,22.10
2017-07-04T22:34:15.533Z,22.10
2017-07-04T22:36:43.803Z,22.10
2017-07-04T22:39:12.240Z,22.20
2017-07-04T22:41:40.583Z,22.10
2017-07-04T22:44:08.846Z,22.10
2017-07-04T22:46:37.874Z,22.00
2017-07-04T22:49:06.193Z,22.00
2017-07-04T22:51:35.277Z,22.10
2017-07-04T22:54:03.535Z,22.10
2017-07-04T22:56:31.832Z,22.20
2017-07-04T22:59:00.130Z,22.10
2017-07-04T23:01:28.376Z,22.10
2017-07-04T23:03:56.869Z,22.00
2017-07-04T23:06:25.115Z,21.90
2017-07-04T23:08:53.372Z,21.80
2017-07-04T23:11:21.731Z,21.90
2017-07-04T23:13:50.780Z,21.80
2017-07-04T23:16:19.041Z,21.80
2017-07-04T23:18:47.468Z,21.70
2017-07-04T23:21:15.751Z,21.80
2017-07-04T23:23:44.771Z,21.80
2017-07-04T23:26:14.066Z,21.70
2017-07-04T23:28:42.332Z,21.70
2017-07-04T23:31:11.349Z,21.70
2017-07-04T23:33:39.657Z,21.60
2017-07-04T23:36:07.912Z,21.60
2017-07-04T23:38:36.199Z,21.50
2017-07-04T23:41:04.482Z,21.50
2017-07-04T23:43:32.752Z,21.50
2017-07-04T23:46:01.015Z,21.50
2017-07-04T23:48:29.305Z,21.40
2017-07-04T23:50:57.565Z,21.30
2017-07-04T23:53:25.889Z,21.30
2017-07-04T23:55:55.065Z,21.20
2017-07-04T23:58:23.319Z,21.20
